Time;durP1;ratioP1;P1;durP2;ratioP2;P2;SDS_P1;SDS_P2;PMS_P1;PMS_P2;Temp;Humidity;BMP_temperature;BMP_pressure;BME280_temperature;BME280_humidity;BME280_pressure;Samples;Min_cycle;Max_cycle;Signal;HPM_P1;HPM_P2
2024/04/07 00:03:18;;;;;;;7.20;4.00;;;;;;;;;;10540986;28;20293;-61
2024/04/07 00:08:19;;;;;;;8.25;4.68;;;;;;;;;;10560778;28;20373;-62
2024/04/07 00:13:19;;;;;;;6.43;3.92;;;;;;;;;;10545343;28;20085;-61
2024/04/07 00:18:20;;;;;;;7.82;3.70;;;;;;;;;;10550414;28;20458;-61
2024/04/07 00:23:22;;;;;;;6.72;3.72;;;;;;;;;;10550948;28;20487;-61
2024/04/07 00:28:23;;;;;;;7.07;4.03;;;;;;;;;;10547212;28;20047;-61
2024/04/07 00:33:24;;;;;;;6.18;3.90;;;;;;;;;;10547023;28;20032;-61
2024/04/07 00:38:25;;;;;;;6.93;3.72;;;;;;;;;;10546277;28;20478;-61
2024/04/07 00:43:27;;;;;;;9.07;3.97;;;;;;;;;;10550878;28;20491;-61
2024/04/07 00:48:29;;;;;;;5.05;3.30;;;;;;;;;;10546005;28;20047;-61
2024/04/07 00:53:29;;;;;;;4.70;3.53;;;;;;;;;;10568229;28;20028;-61
2024/04/07 00:58:30;;;;;;;3.65;3.20;;;;;;;;;;10572629;28;20036;-61
2024/04/07 01:03:31;;;;;;;9.85;3.60;;;;;;;;;;10554171;28;20118;-61
2024/04/07 01:08:32;;;;;;;8.02;3.60;;;;;;;;;;10554224;28;20507;-61
2024/04/07 01:13:33;;;;;;;5.20;3.33;;;;;;;;;;10567703;28;20486;-61
2024/04/07 01:18:33;;;;;;;4.85;3.30;;;;;;;;;;10562423;28;20023;-61
2024/04/07 01:23:34;;;;;;;7.65;3.35;;;;;;;;;;10560938;28;20045;-62
2024/04/07 01:28:35;;;;;;;12.20;4.47;;;;;;;;;;10546502;28;20036;-63
2024/04/07 01:33:36;;;;;;;10.52;3.33;;;;;;;;;;10545072;28;20032;-63
2024/04/07 01:38:36;;;;;;;4.65;3.17;;;;;;;;;;10557079;28;20471;-63
2024/04/07 01:43:37;;;;;;;5.78;3.33;;;;;;;;;;10539588;28;20547;-63
2024/04/07 01:48:37;;;;;;;6.50;3.90;;;;;;;;;;10553117;28;20479;-63
2024/04/07 01:53:39;;;;;;;7.88;3.28;;;;;;;;;;10574323;28;20012;-63
2024/04/07 01:58:40;;;;;;;3.88;3.40;;;;;;;;;;10568406;28;20234;-63
2024/04/07 02:03:40;;;;;;;6.90;3.55;;;;;;;;;;10547496;28;20294;-63
2024/04/07 02:08:41;;;;;;;8.45;3.22;;;;;;;;;;10543695;28;20043;-62
2024/04/07 02:13:42;;;;;;;5.07;3.47;;;;;;;;;;10566850;28;20020;-62
2024/04/07 02:18:43;;;;;;;3.50;2.97;;;;;;;;;;10551011;28;20066;-62
2024/04/07 02:23:43;;;;;;;4.03;3.08;;;;;;;;;;10572015;28;20038;-61
2024/04/07 02:28:44;;;;;;;4.65;2.50;;;;;;;;;;10561350;28;20039;-62
2024/04/07 02:33:47;;;;;;;6.97;3.03;;;;;;;;;;10561294;28;20024;-62
2024/04/07 02:38:48;;;;;;;3.13;2.67;;;;;;;;;;10556511;28;20028;-62
2024/04/07 02:43:49;;;;;;;3.75;3.10;;;;;;;;;;10566631;28;20046;-61
2024/04/07 02:48:50;;;;;;;4.53;2.90;;;;;;;;;;10549843;28;20084;-62
2024/04/07 02:53:50;;;;;;;5.28;3.10;;;;;;;;;;10553033;28;20028;-62
2024/04/07 02:58:51;;;;;;;4.60;3.40;;;;;;;;;;10565293;28;20028;-62
2024/04/07 03:03:51;;;;;;;3.83;2.97;;;;;;;;;;10564559;28;20059;-62
2024/04/07 03:08:52;;;;;;;4.25;2.90;;;;;;;;;;10559024;28;20403;-62
2024/04/07 03:13:52;;;;;;;6.07;2.67;;;;;;;;;;10547025;28;20062;-62
2024/04/07 03:18:53;;;;;;;3.25;2.95;;;;;;;;;;10558621;28;20155;-61
2024/04/07 03:23:53;;;;;;;3.90;2.75;;;;;;;;;;10554916;28;20034;-61
2024/04/07 03:28:55;;;;;;;5.90;3.17;;;;;;;;;;10561109;28;20023;-61
2024/04/07 03:33:55;;;;;;;4.40;3.15;;;;;;;;;;10552661;28;20102;-61
2024/04/07 03:39:00;;;;;;;2.80;2.60;;;;;;;;;;10545538;28;20054;-61
2024/04/07 03:44:00;;;;;;;2.97;2.55;;;;;;;;;;10554003;28;20066;-61
2024/04/07 03:49:01;;;;;;;3.53;2.83;;;;;;;;;;10554995;28;20020;-61
2024/04/07 03:54:03;;;;;;;3.70;3.13;;;;;;;;;;10557264;28;20673;-62
2024/04/07 03:59:04;;;;;;;5.28;3.13;;;;;;;;;;10562791;28;20032;-62
2024/04/07 04:04:04;;;;;;;3.20;2.90;;;;;;;;;;10551557;28;20115;-62
2024/04/07 04:09:05;;;;;;;3.33;2.92;;;;;;;;;;10560385;28;20047;-62
2024/04/07 04:14:06;;;;;;;3.42;3.03;;;;;;;;;;10545956;28;20058;-62
2024/04/07 04:19:06;;;;;;;2.95;2.65;;;;;;;;;;10565397;28;20390;-62
2024/04/07 04:24:07;;;;;;;4.38;2.88;;;;;;;;;;10556656;28;20417;-62
2024/04/07 04:29:07;;;;;;;4.10;2.80;;;;;;;;;;10546744;28;20032;-61
2024/04/07 04:34:08;;;;;;;5.28;2.67;;;;;;;;;;10548050;28;20300;-61
2024/04/07 04:39:08;;;;;;;2.60;2.40;;;;;;;;;;10563495;28;20027;-62
2024/04/07 04:44:09;;;;;;;9.32;2.78;;;;;;;;;;10553348;28;20040;-61
2024/04/07 04:49:19;;;;;;;3.75;2.60;;;;;;;;;;10550491;28;20051;-61
2024/04/07 04:54:20;;;;;;;3.67;2.90;;;;;;;;;;10557161;28;20040;-61
2024/04/07 04:59:20;;;;;;;3.70;2.80;;;;;;;;;;10554318;28;20036;-62
2024/04/07 05:04:21;;;;;;;2.80;2.50;;;;;;;;;;10564285;28;20123;-62
2024/04/07 05:09:21;;;;;;;3.72;2.67;;;;;;;;;;10543491;28;20093;-61
2024/04/07 05:14:22;;;;;;;9.88;2.65;;;;;;;;;;10542873;28;20032;-61
2024/04/07 05:19:22;;;;;;;2.60;2.40;;;;;;;;;;10549764;28;20030;-62
2024/04/07 05:24:23;;;;;;;3.55;2.58;;;;;;;;;;10552996;28;20266;-62
2024/04/07 05:29:24;;;;;;;2.83;2.55;;;;;;;;;;10553918;28;20027;-61
2024/04/07 05:34:27;;;;;;;2.45;2.10;;;;;;;;;;10540415;28;20024;-62
2024/04/07 05:39:27;;;;;;;3.00;2.33;;;;;;;;;;10560445;28;20753;-61
2024/04/07 05:44:30;;;;;;;2.65;2.45;;;;;;;;;;10562182;27;20031;-61
2024/04/07 05:49:33;;;;;;;2.78;2.38;;;;;;;;;;10556859;28;20036;-61
2024/04/07 05:54:34;;;;;;;3.20;2.20;;;;;;;;;;10546156;28;20036;-61
2024/04/07 05:59:34;;;;;;;3.03;2.40;;;;;;;;;;10561965;28;20032;-61
2024/04/07 06:04:35;;;;;;;3.20;2.63;;;;;;;;;;10548357;28;20336;-62
2024/04/07 06:09:36;;;;;;;4.05;2.45;;;;;;;;;;10557450;28;20454;-62
2024/04/07 06:14:36;;;;;;;4.50;2.55;;;;;;;;;;10556158;28;20533;-62
2024/04/07 06:19:37;;;;;;;3.65;2.60;;;;;;;;;;10567762;28;20223;-62
2024/04/07 06:24:39;;;;;;;3.03;2.55;;;;;;;;;;10561861;28;20032;-62
2024/04/07 06:29:39;;;;;;;3.28;2.55;;;;;;;;;;10555305;28;20035;-62
2024/04/07 06:34:40;;;;;;;5.13;2.20;;;;;;;;;;10549529;28;20039;-64
2024/04/07 06:39:40;;;;;;;4.45;2.05;;;;;;;;;;10550683;28;20039;-62
2024/04/07 06:44:41;;;;;;;2.60;2.40;;;;;;;;;;10543644;28;20035;-62
2024/04/07 06:49:41;;;;;;;3.97;2.80;;;;;;;;;;10544605;28;20057;-62
2024/04/07 06:54:43;;;;;;;2.47;2.28;;;;;;;;;;10544953;28;20039;-61
2024/04/07 06:59:44;;;;;;;2.70;2.50;;;;;;;;;;10550689;28;20027;-61
2024/04/07 07:04:47;;;;;;;4.03;2.47;;;;;;;;;;10545290;28;20028;-61
2024/04/07 07:09:47;;;;;;;2.30;2.08;;;;;;;;;;10551450;28;20093;-61
2024/04/07 07:14:48;;;;;;;2.67;2.47;;;;;;;;;;10550688;28;20032;-61
2024/04/07 07:19:49;;;;;;;3.67;2.58;;;;;;;;;;10553797;28;20170;-61
2024/04/07 07:24:50;;;;;;;4.07;2.60;;;;;;;;;;10547016;28;20081;-62
2024/04/07 07:29:50;;;;;;;2.60;2.40;;;;;;;;;;10543236;28;20059;-62
2024/04/07 07:34:51;;;;;;;2.75;2.55;;;;;;;;;;10538514;28;20031;-62
2024/04/07 07:39:51;;;;;;;2.63;2.42;;;;;;;;;;10569176;28;20073;-62
2024/04/07 07:44:52;;;;;;;2.83;2.55;;;;;;;;;;10556317;28;20050;-61
2024/04/07 07:49:53;;;;;;;2.60;2.25;;;;;;;;;;10559567;28;20027;-62
2024/04/07 07:54:53;;;;;;;2.40;2.20;;;;;;;;;;10531438;27;20052;-62
2024/04/07 07:59:54;;;;;;;4.20;2.40;;;;;;;;;;10549768;28;20031;-61
2024/04/07 08:04:54;;;;;;;4.90;2.22;;;;;;;;;;10548621;28;20024;-60
2024/04/07 08:09:55;;;;;;;3.25;2.95;;;;;;;;;;10556618;28;20050;-60
2024/04/07 08:14:56;;;;;;;8.90;5.13;;;;;;;;;;10564790;27;20047;-62
2024/04/07 08:19:56;;;;;;;14.63;9.98;;;;;;;;;;10549864;28;20092;-62
2024/04/07 08:24:57;;;;;;;26.33;13.32;;;;;;;;;;10562149;28;20482;-62
2024/04/07 08:29:57;;;;;;;13.90;10.55;;;;;;;;;;10569010;28;20021;-62
2024/04/07 08:34:58;;;;;;;22.17;14.10;;;;;;;;;;10556595;28;20019;-62
2024/04/07 08:39:59;;;;;;;18.45;13.98;;;;;;;;;;10550568;28;20031;-62
2024/04/07 08:45:03;;;;;;;19.17;12.77;;;;;;;;;;10566033;28;20020;-62
2024/04/07 08:50:05;;;;;;;22.25;12.95;;;;;;;;;;10565889;28;20020;-62
2024/04/07 08:55:06;;;;;;;21.08;14.00;;;;;;;;;;10553434;28;20066;-62
2024/04/07 09:00:08;;;;;;;18.40;14.00;;;;;;;;;;10556286;28;20448;-63
2024/04/07 09:05:09;;;;;;;17.95;12.77;;;;;;;;;;10513852;28;20082;-62
2024/04/07 09:10:10;;;;;;;23.70;16.10;;;;;;;;;;10546235;28;20047;-63
2024/04/07 09:15:10;;;;;;;23.33;15.75;;;;;;;;;;10555996;28;20031;-62
2024/04/07 09:20:21;;;;;;;23.75;16.17;;;;;;;;;;10568696;28;20537;-63
2024/04/07 09:25:22;;;;;;;28.30;18.77;;;;;;;;;;10568642;27;20186;-62
2024/04/07 09:30:23;;;;;;;26.00;17.80;;;;;;;;;;10552553;28;20032;-62
2024/04/07 09:35:24;;;;;;;24.80;17.52;;;;;;;;;;10548127;28;20471;-62
2024/04/07 09:40:28;;;;;;;29.73;19.85;;;;;;;;;;10553934;28;20024;-62
2024/04/07 09:45:28;;;;;;;30.20;20.30;;;;;;;;;;10565667;27;20074;-63
2024/04/07 09:50:37;;;;;;;21.42;14.52;;;;;;;;;;10550130;27;20043;-62
2024/04/07 09:55:42;;;;;;;20.88;14.23;;;;;;;;;;10561797;28;20077;-62
2024/04/07 10:00:43;;;;;;;29.58;19.63;;;;;;;;;;10560098;28;20036;-62
2024/04/07 10:05:44;;;;;;;29.42;22.05;;;;;;;;;;10554740;28;20483;-62
2024/04/07 10:10:44;;;;;;;30.10;21.13;;;;;;;;;;10559875;27;20090;-62
2024/04/07 10:15:50;;;;;;;26.85;17.23;;;;;;;;;;10540911;28;20073;-62
2024/04/07 10:20:54;;;;;;;27.55;19.77;;;;;;;;;;10551052;28;20418;-62
2024/04/07 10:26:05;;;;;;;26.20;16.52;;;;;;;;;;10563026;28;20031;-63
2024/04/07 10:31:08;;;;;;;21.48;13.88;;;;;;;;;;10546112;28;20035;-63
2024/04/07 10:36:16;;;;;;;21.70;17.20;;;;;;;;;;10541096;28;20030;-63
2024/04/07 10:41:24;;;;;;;27.92;17.90;;;;;;;;;;10535894;28;20031;-63
2024/04/07 10:46:26;;;;;;;21.67;14.10;;;;;;;;;;10553209;28;20071;-63
2024/04/07 10:51:26;;;;;;;20.40;15.30;;;;;;;;;;10544797;28;20065;-63
2024/04/07 10:56:28;;;;;;;23.73;15.50;;;;;;;;;;10571532;27;20161;-63
2024/04/07 11:01:30;;;;;;;28.42;18.92;;;;;;;;;;10556999;28;20493;-63
2024/04/07 11:06:30;;;;;;;21.98;14.07;;;;;;;;;;10564638;28;20371;-62
2024/04/07 11:11:31;;;;;;;32.28;18.05;;;;;;;;;;10557564;28;20051;-62
2024/04/07 11:16:35;;;;;;;25.95;18.10;;;;;;;;;;10547393;28;20411;-62
2024/04/07 11:21:36;;;;;;;20.63;16.35;;;;;;;;;;10558793;28;20127;-62
2024/04/07 11:26:37;;;;;;;23.25;14.60;;;;;;;;;;10565563;28;20035;-62
2024/04/07 11:31:37;;;;;;;19.50;13.40;;;;;;;;;;10533657;28;20440;-62
2024/04/07 11:36:38;;;;;;;20.98;15.30;;;;;;;;;;10538317;28;20020;-62
2024/04/07 11:41:38;;;;;;;25.15;18.23;;;;;;;;;;10536173;28;20089;-62
2024/04/07 11:46:39;;;;;;;26.85;18.35;;;;;;;;;;10543340;28;20028;-62
2024/04/07 11:51:40;;;;;;;23.98;15.77;;;;;;;;;;10530980;28;20020;-62
2024/04/07 11:56:40;;;;;;;20.73;14.77;;;;;;;;;;10542368;28;20027;-62
2024/04/07 12:01:41;;;;;;;19.00;14.55;;;;;;;;;;10540605;28;20032;-62
2024/04/07 12:06:42;;;;;;;18.33;14.05;;;;;;;;;;10552674;28;20032;-63
2024/04/07 12:11:42;;;;;;;22.23;15.07;;;;;;;;;;10560407;28;20089;-62
2024/04/07 12:16:44;;;;;;;18.92;12.25;;;;;;;;;;10545511;28;20056;-62
2024/04/07 12:21:45;;;;;;;17.77;12.93;;;;;;;;;;10553902;28;20039;-63
2024/04/07 12:26:51;;;;;;;15.35;11.95;;;;;;;;;;10547802;28;20086;-62
2024/04/07 12:31:51;;;;;;;19.45;13.70;;;;;;;;;;10546523;28;20544;-62
2024/04/07 12:36:52;;;;;;;18.85;12.82;;;;;;;;;;10549164;28;20112;-62
2024/04/07 12:41:53;;;;;;;16.85;12.82;;;;;;;;;;10543593;28;20478;-62
2024/04/07 12:46:53;;;;;;;19.73;12.73;;;;;;;;;;10546856;28;20105;-62
2024/04/07 12:51:54;;;;;;;17.77;12.05;;;;;;;;;;10552661;28;20028;-62
2024/04/07 12:56:55;;;;;;;16.63;11.77;;;;;;;;;;10533070;28;20036;-62
2024/04/07 13:01:55;;;;;;;16.52;11.82;;;;;;;;;;10560667;28;20027;-62
2024/04/07 13:06:56;;;;;;;18.70;12.65;;;;;;;;;;10545717;28;20031;-62
2024/04/07 13:11:57;;;;;;;18.42;12.50;;;;;;;;;;10544163;28;20032;-62
2024/04/07 13:16:58;;;;;;;21.13;12.85;;;;;;;;;;10547639;28;20077;-62
2024/04/07 13:21:58;;;;;;;20.40;13.88;;;;;;;;;;10552228;28;20164;-62
2024/04/07 13:26:59;;;;;;;18.52;13.27;;;;;;;;;;10567939;28;20028;-62
2024/04/07 13:32:00;;;;;;;17.52;12.60;;;;;;;;;;10551034;28;20609;-62
2024/04/07 13:37:02;;;;;;;16.83;12.23;;;;;;;;;;10559087;28;20016;-62
2024/04/07 13:42:04;;;;;;;19.83;13.68;;;;;;;;;;10551223;28;20028;-62
2024/04/07 13:47:04;;;;;;;16.98;10.55;;;;;;;;;;10536323;28;20023;-62
2024/04/07 13:52:05;;;;;;;17.92;11.52;;;;;;;;;;10546361;28;20025;-62
2024/04/07 13:57:05;;;;;;;16.98;11.85;;;;;;;;;;10537519;28;20652;-62
2024/04/07 14:02:06;;;;;;;27.60;13.38;;;;;;;;;;10563889;28;20035;-63
2024/04/07 14:07:07;;;;;;;17.52;11.85;;;;;;;;;;10548078;28;20368;-62
2024/04/07 14:12:08;;;;;;;17.23;11.93;;;;;;;;;;10558129;28;20447;-62
2024/04/07 14:17:08;;;;;;;15.38;10.68;;;;;;;;;;10537566;28;20071;-62
2024/04/07 14:22:09;;;;;;;18.05;10.95;;;;;;;;;;10535788;28;20058;-62
2024/04/07 14:27:10;;;;;;;19.48;11.18;;;;;;;;;;10566480;28;20028;-62
2024/04/07 14:32:11;;;;;;;22.25;12.63;;;;;;;;;;10549104;28;20035;-62
2024/04/07 14:37:12;;;;;;;14.35;11.20;;;;;;;;;;10536739;28;20020;-62
2024/04/07 14:42:13;;;;;;;14.70;10.90;;;;;;;;;;10572168;28;20027;-62
2024/04/07 14:47:13;;;;;;;17.27;9.35;;;;;;;;;;10555902;28;20028;-62
2024/04/07 14:52:14;;;;;;;15.63;9.90;;;;;;;;;;10546578;28;20050;-62
2024/04/07 14:57:15;;;;;;;16.63;11.27;;;;;;;;;;10563432;28;20070;-62
2024/04/07 15:02:16;;;;;;;14.30;10.88;;;;;;;;;;10555688;28;20173;-62
2024/04/07 15:07:16;;;;;;;18.92;10.00;;;;;;;;;;10546857;27;20094;-62
2024/04/07 15:12:17;;;;;;;16.85;9.27;;;;;;;;;;10550479;28;20040;-61
2024/04/07 15:17:18;;;;;;;15.80;9.70;;;;;;;;;;10552074;28;20027;-62
2024/04/07 15:22:21;;;;;;;12.68;9.30;;;;;;;;;;10546041;28;20037;-62
2024/04/07 15:27:21;;;;;;;14.90;10.27;;;;;;;;;;10552527;28;20344;-63
2024/04/07 15:32:22;;;;;;;14.38;11.10;;;;;;;;;;10544040;28;20035;-63
2024/04/07 15:37:22;;;;;;;15.55;9.38;;;;;;;;;;10537136;28;20031;-63
2024/04/07 15:42:23;;;;;;;12.32;9.05;;;;;;;;;;10538587;28;20023;-63
2024/04/07 15:47:24;;;;;;;13.40;8.45;;;;;;;;;;10551711;28;20028;-63
2024/04/07 15:52:24;;;;;;;13.20;9.32;;;;;;;;;;10546918;28;20081;-62
2024/04/07 15:57:25;;;;;;;12.32;9.70;;;;;;;;;;10561120;28;20030;-62
2024/04/07 16:02:25;;;;;;;15.55;10.55;;;;;;;;;;10560115;28;20062;-63
2024/04/07 16:07:26;;;;;;;18.27;9.57;;;;;;;;;;10549525;28;20032;-63
2024/04/07 16:12:27;;;;;;;13.63;9.20;;;;;;;;;;10566675;28;20548;-63
2024/04/07 16:17:27;;;;;;;16.38;9.75;;;;;;;;;;10569734;28;20467;-63
2024/04/07 16:22:28;;;;;;;15.88;9.25;;;;;;;;;;10564237;28;20109;-63
2024/04/07 16:27:29;;;;;;;17.08;9.02;;;;;;;;;;10564822;28;20028;-63
2024/04/07 16:32:29;;;;;;;13.45;8.85;;;;;;;;;;10563379;28;20033;-62
2024/04/07 16:37:30;;;;;;;11.73;8.95;;;;;;;;;;10552077;28;20499;-62
2024/04/07 16:42:31;;;;;;;13.35;9.00;;;;;;;;;;10558920;28;20081;-62
2024/04/07 16:47:31;;;;;;;15.68;9.75;;;;;;;;;;10535765;28;20523;-62
2024/04/07 16:52:32;;;;;;;22.15;9.90;;;;;;;;;;10554442;28;20040;-61
2024/04/07 16:57:33;;;;;;;14.43;9.30;;;;;;;;;;10537516;28;20032;-62
2024/04/07 17:02:33;;;;;;;13.88;8.52;;;;;;;;;;10538256;28;20027;-62
2024/04/07 17:07:34;;;;;;;21.60;8.43;;;;;;;;;;10545955;28;20016;-61
2024/04/07 17:12:34;;;;;;;9.57;7.65;;;;;;;;;;10535926;28;20375;-62
2024/04/07 17:17:35;;;;;;;10.77;7.90;;;;;;;;;;10533338;28;20375;-61
2024/04/07 17:22:36;;;;;;;9.02;6.72;;;;;;;;;;10527430;28;20060;-61
2024/04/07 17:27:36;;;;;;;11.10;7.10;;;;;;;;;;10546433;28;20499;-62
2024/04/07 17:32:37;;;;;;;9.27;5.97;;;;;;;;;;10558824;27;20489;-62
2024/04/07 17:37:37;;;;;;;10.02;6.05;;;;;;;;;;10551905;27;20027;-62
2024/04/07 17:42:38;;;;;;;9.60;6.50;;;;;;;;;;10537143;28;20035;-62
2024/04/07 17:47:38;;;;;;;8.98;6.05;;;;;;;;;;10548143;28;20020;-62
2024/04/07 17:52:39;;;;;;;19.70;5.80;;;;;;;;;;10543262;28;20055;-62
2024/04/07 17:57:42;;;;;;;10.32;7.22;;;;;;;;;;10546624;28;20475;-61
2024/04/07 18:02:42;;;;;;;9.45;6.65;;;;;;;;;;10563748;27;20031;-61
2024/04/07 18:07:43;;;;;;;9.77;6.82;;;;;;;;;;10561078;28;20034;-61
2024/04/07 18:12:44;;;;;;;9.95;6.22;;;;;;;;;;10557455;28;20040;-61
2024/04/07 18:17:48;;;;;;;7.57;5.47;;;;;;;;;;10558386;28;20158;-61
2024/04/07 18:22:48;;;;;;;9.18;6.35;;;;;;;;;;10548117;28;20032;-61
2024/04/07 18:27:49;;;;;;;8.10;6.07;;;;;;;;;;10562085;28;20463;-61
2024/04/07 18:32:49;;;;;;;8.65;5.82;;;;;;;;;;10557127;28;20391;-61
2024/04/07 18:37:50;;;;;;;10.30;5.75;;;;;;;;;;10537560;28;20114;-61
2024/04/07 18:42:51;;;;;;;10.60;5.40;;;;;;;;;;10559201;28;20147;-61
2024/04/07 18:47:51;;;;;;;11.85;5.60;;;;;;;;;;10553077;28;20031;-61
2024/04/07 18:52:52;;;;;;;6.57;5.68;;;;;;;;;;10551374;28;20106;-61
2024/04/07 18:57:53;;;;;;;6.47;5.50;;;;;;;;;;10560585;28;20020;-61
2024/04/07 19:03:05;;;;;;;10.13;5.35;;;;;;;;;;10561056;28;20059;-61
2024/04/07 19:08:07;;;;;;;7.57;5.00;;;;;;;;;;10556295;28;20054;-61
2024/04/07 19:13:07;;;;;;;6.70;4.55;;;;;;;;;;10553298;27;20410;-62
2024/04/07 19:18:08;;;;;;;11.95;4.85;;;;;;;;;;10551094;27;20027;-61
2024/04/07 19:23:08;;;;;;;5.75;4.70;;;;;;;;;;10551480;28;20459;-61
2024/04/07 19:28:09;;;;;;;6.07;5.10;;;;;;;;;;10560370;28;20471;-61
2024/04/07 19:33:10;;;;;;;9.25;5.35;;;;;;;;;;10563233;28;20028;-61
2024/04/07 19:38:12;;;;;;;6.20;5.10;;;;;;;;;;10557298;28;20285;-61
2024/04/07 19:43:14;;;;;;;6.65;4.70;;;;;;;;;;10548281;28;20103;-61
2024/04/07 19:48:14;;;;;;;7.25;4.70;;;;;;;;;;10555530;28;20032;-61
2024/04/07 19:53:15;;;;;;;7.90;5.22;;;;;;;;;;10569580;28;20052;-61
2024/04/07 19:58:16;;;;;;;7.18;4.95;;;;;;;;;;10555900;28;20028;-61
2024/04/07 20:03:19;;;;;;;5.68;4.90;;;;;;;;;;10534311;28;20040;-61
2024/04/07 20:08:19;;;;;;;6.78;4.85;;;;;;;;;;10534721;28;20081;-61
2024/04/07 20:13:20;;;;;;;5.50;4.45;;;;;;;;;;10539787;28;20036;-61
2024/04/07 20:18:21;;;;;;;7.03;4.65;;;;;;;;;;10545651;28;20024;-61
2024/04/07 20:23:21;;;;;;;8.65;4.93;;;;;;;;;;10542599;28;20109;-61
2024/04/07 20:28:22;;;;;;;8.43;4.70;;;;;;;;;;10560875;28;20514;-61
2024/04/07 20:33:23;;;;;;;6.78;5.18;;;;;;;;;;10531587;28;20024;-62
2024/04/07 20:38:24;;;;;;;6.45;4.40;;;;;;;;;;10551454;28;20468;-62
2024/04/07 20:43:25;;;;;;;5.10;4.53;;;;;;;;;;10562916;28;20031;-62
2024/04/07 20:48:25;;;;;;;7.78;4.38;;;;;;;;;;10554878;28;20039;-62
2024/04/07 20:53:26;;;;;;;8.48;4.80;;;;;;;;;;10549943;28;20098;-61
2024/04/07 20:58:26;;;;;;;11.63;4.82;;;;;;;;;;10545079;28;20078;-62
2024/04/07 21:03:27;;;;;;;4.75;4.13;;;;;;;;;;10537227;28;20027;-63
2024/04/07 21:08:28;;;;;;;12.80;5.03;;;;;;;;;;10553671;28;20040;-63
2024/04/07 21:13:29;;;;;;;4.80;4.30;;;;;;;;;;10568619;28;20035;-63
2024/04/07 21:18:29;;;;;;;4.97;4.45;;;;;;;;;;10568369;28;20397;-64
2024/04/07 21:23:30;;;;;;;5.53;4.40;;;;;;;;;;10568701;28;20031;-64
2024/04/07 21:28:36;;;;;;;10.25;4.55;;;;;;;;;;10561571;28;20024;-64
2024/04/07 21:33:37;;;;;;;5.95;4.55;;;;;;;;;;10554208;28;20059;-63
2024/04/07 21:38:38;;;;;;;12.65;4.63;;;;;;;;;;10543503;28;20384;-63
2024/04/07 21:43:39;;;;;;;7.38;3.92;;;;;;;;;;10546348;28;20035;-63
2024/04/07 21:48:40;;;;;;;6.82;4.88;;;;;;;;;;10536998;28;20387;-63
2024/04/07 21:53:41;;;;;;;8.02;3.88;;;;;;;;;;10548291;28;20035;-63
2024/04/07 21:58:41;;;;;;;8.70;4.63;;;;;;;;;;10550517;28;20086;-63
2024/04/07 22:03:42;;;;;;;9.85;4.00;;;;;;;;;;10570009;27;20032;-63
2024/04/07 22:08:42;;;;;;;5.65;4.50;;;;;;;;;;10587239;27;20092;-63
2024/04/07 22:13:44;;;;;;;5.20;4.47;;;;;;;;;;10588528;27;20023;-63
2024/04/07 22:18:45;;;;;;;6.45;4.57;;;;;;;;;;10555325;27;20036;-63
2024/04/07 22:23:45;;;;;;;5.70;4.03;;;;;;;;;;10534179;28;20479;-63
2024/04/07 22:28:46;;;;;;;6.03;4.32;;;;;;;;;;10533621;28;20020;-62
2024/04/07 22:33:47;;;;;;;9.57;3.78;;;;;;;;;;10555635;28;20387;-63
2024/04/07 22:38:47;;;;;;;7.22;4.47;;;;;;;;;;10550144;28;20497;-63
2024/04/07 22:43:48;;;;;;;5.93;4.35;;;;;;;;;;10556976;27;20477;-63
2024/04/07 22:48:49;;;;;;;4.55;3.78;;;;;;;;;;10557653;28;20100;-63
2024/04/07 22:53:53;;;;;;;5.18;3.85;;;;;;;;;;10558220;28;20047;-63
2024/04/07 22:58:54;;;;;;;6.80;3.97;;;;;;;;;;10559249;28;20057;-63
2024/04/07 23:03:55;;;;;;;5.18;3.80;;;;;;;;;;10555158;28;20024;-63
2024/04/07 23:08:56;;;;;;;4.05;3.50;;;;;;;;;;10559560;28;20088;-63
2024/04/07 23:13:56;;;;;;;4.60;4.10;;;;;;;;;;10557831;28;20224;-63
2024/04/07 23:18:57;;;;;;;5.60;4.05;;;;;;;;;;10560822;28;20215;-63
2024/04/07 23:23:57;;;;;;;5.18;3.92;;;;;;;;;;10558708;28;20132;-63
2024/04/07 23:28:58;;;;;;;19.45;3.88;;;;;;;;;;10558883;28;20024;-63
2024/04/07 23:33:58;;;;;;;5.68;3.80;;;;;;;;;;10551225;28;20024;-63
2024/04/07 23:38:59;;;;;;;5.55;3.97;;;;;;;;;;10553791;28;20367;-63
2024/04/07 23:44:00;;;;;;;4.60;4.05;;;;;;;;;;10539056;28;20031;-63
2024/04/07 23:49:00;;;;;;;4.75;3.97;;;;;;;;;;10537331;27;20024;-63
2024/04/07 23:54:01;;;;;;;4.78;3.70;;;;;;;;;;10558663;28;20090;-62
2024/04/07 23:59:02;;;;;;;6.18;3.55;;;;;;;;;;10554095;28;20065;-62
